Sturgis, SD

4:33 AM MDT on August 30, 2014 (GMT -0600)
Elk Creek Village | Change Station
CLOSE
Current Station
Personal Weather Station
Location: Piedmont, SD
Elevation: 3576 ft
Nearby Weather Stations

Elev 3576 ft 44.24 °N, 103.40 °W | Updated 48 minutes ago

Clear
Clear
53.6 °F
Feels Like 53.6 °F
N
0.0
Wind Variable Wind from North
Gusts 2.0 mph

Today
High -- | Low -- °F
--% Chance of Precip.
Yesterday
High -- | Low -- °F
Precip. -- in
6:14 AM 7:33 PM
Waxing Crescent, 21% visible
Pressure 29.96 in
Visibility 10.0 miles
Clouds Clear
Dew Point 51 °F
Humidity 91%
Rainfall 0.00 in
Snow Depth Not available.
UV 0 out of 12
Pollen 9.20 out of 12
Air Quality Not available.
Flu Activity Not available.
METAR KSPF 300955Z AUTO 00000KT 10SM CLR 10/09 A2996 RMK AO2

More Conditions Fewer Conditions

Pressure 29.96 in
Visibility 10.0 miles
Clouds Clear
Dew Point 51 °F
Humidity 91%
Rainfall 0.00 in
Snow Depth Not available.
UV 0 out of 12
Pollen 9.20 out of 12
Air Quality Not available.
Flu Activity Not available.
METAR KSPF 300955Z AUTO 00000KT 10SM CLR 10/09 A2996 RMK AO2

More Conditions Fewer Conditions

10-Day Weather Forecast

Almanac

Astronomy

Aug. 30, 2014 Rise Set
Actual Time 6:14 AM MDT 7:33 PM MDT
Civil Twilight 5:44 AM MDT 8:03 PM MDT
Nautical Twilight 5:07 AM MDT 8:39 PM MDT
Astronomical Twilight 4:29 AM MDT 9:18 PM MDT
Moon 11:16 AM MDT 9:56 PM MDT
Length of Visible Light 14h 19m
Length of Day
13h 19m
Tomorrow will be 2m 57s shorter.
Waxing Crescent, 21% of the Moon is Illuminated
Today
Waxing Crescent
Sep 2
First Quarter
Sep 8
Full
Sep 15
Last Quarter
Sep 24
New

Today's Extremes

State Highs State Lows

Community

WunderPhotos

Upload Photos

1,748,482 photos uploaded!

WunderBlogs® & News

By Dr. Jeff Masters
Director of Meteorology, Weather Underground
By Kari Strenfel
Meteorologist, Weather Underground
By Christopher C. Burt
Weather Historian, Weather Underground
August 30, 2014
August 29, 2014
August 29, 2014

Nearby

Snow Depth

Station Depth Elevation
North Rapid Creek 0 in 6130 ft

Earthquake Activity

City Distance Mag. Time & Date
No recent earthquake activity has been reported nearby.
Minimum magnitude displayed is 2.5.

Coastal Water Temperatures

Place Temperature
No Stations Reporting

Nearby Weather Stations